EUFO2: Eufaula Lake

Data processed at Sat Feb 17 2018 23:09


All information presented herein is the property of the government of the United States of America and may be revised or deleted at any time without prior notice.
Dissemination of this information without the expressed written consent of the Public Affairs Office, Tulsa District U.S. Army Corps of Engineers is strictly prohibited.
These data are gathered electronically and, as presented, have not undergone any form of quality control. These data are not guaranteed to be valid or correct.
Go to home page.
Go to station list.

Upstream stations:

Downstream station:
Previous Day
Next Day
Current Day
    
SHEF ID:       EUFO2     Eufaula Lake
STATION TYPE:  RESERVOIR
Normal Pool:  Bottom =   565.00, Top =   585.00

               PRECIP ELEVATION   STORAGE   TW-ELEV    INFLOW   RELEASE  AIR-TEMP  WIND-DIRWIND-SPEED REL-HUMID SOLAR-RAD   VOLTAGE  BAT-LOAD
                   in        ft     ac-ft        ft       cfs       cfs         F       deg       mph         %      W/m2      volt      volt
              Ccp-Rev   Ccp-Rev   Ccp-Rev   Ccp-Rev  Regi-Rev  Regi-Rev   Ccp-Rev   Ccp-Rev   Ccp-Rev   Ccp-Rev   Ccp-Rev   Ccp-Rev   Ccp-Rev
(US/Central)
02/15 00:00      0.00    580.80   1825588    482.60       984         0     62.53    131.20      5.58     86.45      0.00     13.77     13.53
02/15 01:00      0.00    580.81   1826401    482.59      1967         0     63.19    131.30      5.91     85.71      0.00     13.77     13.53
02/15 02:00      0.00    580.80   1825588    482.59      7870         0     64.83    131.90      5.91     80.65      0.00     13.77     13.53
02/15 03:00      0.00    580.81   1826401    482.60      7870         0     66.81    162.70      8.58     74.05      0.00     13.77     13.53
02/15 04:00      0.00    580.84   1828840    482.57      7870         0     67.48    178.80     11.23     72.04      0.00     13.76     13.59
02/15 05:00      0.06    580.84   1828840    482.59      7870         0     66.27    186.20     13.08     75.82      0.00     13.77     13.53
02/15 06:00      0.01    580.86   1830467    482.57      6158         0     65.71    180.10     11.75     77.90      0.00     13.77     13.42
02/15 07:00      0.04    580.84   1828840    482.59       299         0     65.82    185.70     11.12     77.90      0.00     13.77     13.42
02/15 08:00      0.00    580.87   1831280    482.58       341         0     65.82    172.90      9.90     76.50     22.00     13.77     13.42
02/15 09:00      0.00    580.87   1831280    482.59       384         0     68.23    175.00     10.24     69.04    150.00     13.77     13.42
02/15 10:00      0.00    580.86   1830467    482.62       512         0     70.11    210.40      8.27     63.61    300.00     13.77     13.53
02/15 11:00      0.00    580.85   1829654    482.58       384         0     70.66    191.40      8.66     62.03    393.00     13.78     13.59
02/15 12:00      0.02    580.87   1831280    482.62       469         0     72.52    196.70     11.84     57.69    335.00     13.78     13.59
02/15 13:00      0.00    580.87   1831280    482.60       426         0     73.40    203.60      9.97     55.37    440.00     13.78     13.59
02/15 14:00      0.00    580.86   1830467    482.58       384         0     75.27    184.50      9.28     52.69    412.00     13.78     13.59
02/15 15:00      0.00    580.86   1830467    482.58       256         0     76.48    189.40      9.01     50.12    473.00     13.79     13.59
02/15 16:00      0.00    580.84   1828840    482.58       128         0     76.48    182.80     12.26     51.53    449.00     13.79     13.59
02/15 17:00      0.00    580.83   1828027    482.60         0         0     74.93    179.60      9.15     56.40    259.00     13.79     13.36
02/15 18:00      0.00    580.81   1826401    482.58         0         0     73.17    163.00      8.90     60.98     57.00     13.80     13.59
02/15 19:00      0.00    580.81   1826401    482.59       384         0     71.85    155.80      6.53     67.51      1.00     13.80     13.59
02/15 20:00      0.00    580.81   1826401    482.57       767         0     71.08    177.30      5.07     68.31      0.00     13.80     13.59
02/15 21:00      0.00    580.82   1827214    482.60       959         0     71.42    154.20      5.66     69.72      0.00     13.80     13.59
02/15 22:00      0.00    580.83   1828027    482.60      1151         0     72.41    174.20      6.66     67.15      0.00     13.80     13.59
02/15 23:00      0.00    580.85   1829654    482.58      2043         0     72.18    185.30     10.20     68.86      0.00     13.80     13.59